Time;durP1;ratioP1;P1;durP2;ratioP2;P2;SDS_P1;SDS_P2;PMS_P1;PMS_P2;Temp;Humidity;BMP_temperature;BMP_pressure;BME280_temperature;BME280_humidity;BME280_pressure;Samples;Min_cycle;Max_cycle;Signal;HPM_P1;HPM_P2
2023/12/13 00:02:06;;;;;;;5.68;3.10;;;;;;;;;;5025363;28;20509;-65
2023/12/13 00:04:32;;;;;;;7.45;3.28;;;;;;;;;;5035681;28;20505;-64
2023/12/13 00:06:57;;;;;;;6.45;3.10;;;;;;;;;;5042257;28;20513;-64
2023/12/13 00:09:23;;;;;;;10.63;3.13;;;;;;;;;;5012971;28;20040;-64
2023/12/13 00:11:48;;;;;;;7.93;2.90;;;;;;;;;;5049861;28;20459;-64
2023/12/13 00:14:13;;;;;;;7.82;2.85;;;;;;;;;;5048473;28;20064;-63
2023/12/13 00:16:39;;;;;;;6.93;2.88;;;;;;;;;;5048916;28;20033;-64
2023/12/13 00:19:04;;;;;;;6.85;2.60;;;;;;;;;;5047211;28;20033;-65
2023/12/13 00:21:30;;;;;;;9.20;3.10;;;;;;;;;;5047880;28;20041;-65
2023/12/13 00:23:56;;;;;;;7.93;2.38;;;;;;;;;;5029806;28;20454;-64
2023/12/13 00:26:23;;;;;;;7.80;2.70;;;;;;;;;;5026500;28;20431;-64
2023/12/13 00:28:49;;;;;;;9.32;2.50;;;;;;;;;;5028808;28;20033;-64
2023/12/13 00:31:14;;;;;;;10.25;2.78;;;;;;;;;;5014527;28;20518;-64
2023/12/13 00:33:40;;;;;;;7.43;2.63;;;;;;;;;;5031030;28;20499;-64
2023/12/13 00:36:06;;;;;;;8.57;2.55;;;;;;;;;;5030127;28;20064;-64
2023/12/13 00:38:32;;;;;;;6.18;2.20;;;;;;;;;;5031728;28;20108;-64
2023/12/13 00:40:57;;;;;;;4.63;2.40;;;;;;;;;;5013311;28;20468;-63
2023/12/13 00:43:23;;;;;;;4.35;2.05;;;;;;;;;;5027238;28;20367;-63
2023/12/13 00:45:49;;;;;;;5.35;2.20;;;;;;;;;;5011364;28;20080;-64
2023/12/13 00:48:14;;;;;;;5.75;2.42;;;;;;;;;;5025369;28;20029;-64
2023/12/13 00:50:40;;;;;;;3.80;1.98;;;;;;;;;;5053493;28;20459;-61
2023/12/13 00:53:05;;;;;;;8.15;2.33;;;;;;;;;;5047688;28;20046;-63
2023/12/13 00:55:31;;;;;;;4.43;2.10;;;;;;;;;;5047620;28;20029;-63
2023/12/13 00:57:57;;;;;;;5.47;2.08;;;;;;;;;;5051212;28;20392;-62
2023/12/13 01:00:23;;;;;;;4.28;2.15;;;;;;;;;;5054325;28;20044;-64
2023/12/13 01:02:49;;;;;;;5.93;2.03;;;;;;;;;;5047505;28;20033;-63
2023/12/13 01:05:14;;;;;;;5.60;2.25;;;;;;;;;;5042928;28;20087;-64
2023/12/13 01:07:40;;;;;;;7.82;2.60;;;;;;;;;;5053210;28;20126;-65
2023/12/13 01:10:05;;;;;;;4.95;1.88;;;;;;;;;;5049643;28;20036;-64
2023/12/13 01:12:31;;;;;;;5.85;1.92;;;;;;;;;;5049282;28;20094;-64
2023/12/13 01:14:56;;;;;;;5.18;1.63;;;;;;;;;;5032076;28;20460;-62
2023/12/13 01:17:21;;;;;;;5.30;1.95;;;;;;;;;;5017531;28;20030;-64
2023/12/13 01:19:47;;;;;;;5.47;1.90;;;;;;;;;;5052199;28;20080;-65
2023/12/13 01:22:12;;;;;;;6.57;1.92;;;;;;;;;;5041504;28;20415;-64
2023/12/13 01:24:38;;;;;;;6.78;1.92;;;;;;;;;;5017878;28;20040;-64
2023/12/13 01:27:05;;;;;;;2.85;1.70;;;;;;;;;;5036626;28;20053;-63
2023/12/13 01:29:30;;;;;;;7.63;1.90;;;;;;;;;;5038328;28;20033;-64
2023/12/13 01:31:56;;;;;;;6.93;2.08;;;;;;;;;;5051447;28;20091;-61
2023/12/13 01:34:21;;;;;;;6.80;1.98;;;;;;;;;;5051771;28;20048;-63
2023/12/13 01:36:47;;;;;;;4.25;1.88;;;;;;;;;;5045950;28;20025;-64
2023/12/13 01:39:16;;;;;;;6.32;1.90;;;;;;;;;;5030369;28;20037;-65
2023/12/13 01:41:42;;;;;;;7.40;1.70;;;;;;;;;;5035511;28;20336;-65
2023/12/13 01:44:08;;;;;;;5.65;2.05;;;;;;;;;;5046506;28;20106;-65
2023/12/13 01:46:34;;;;;;;3.47;1.60;;;;;;;;;;5046143;28;20479;-65
2023/12/13 01:49:01;;;;;;;6.47;2.35;;;;;;;;;;5051265;28;20449;-61
2023/12/13 01:51:26;;;;;;;4.80;1.80;;;;;;;;;;5052074;28;20040;-64
2023/12/13 01:53:52;;;;;;;3.28;1.58;;;;;;;;;;5049222;28;20391;-65
2023/12/13 01:56:18;;;;;;;5.03;1.90;;;;;;;;;;5049933;28;20233;-66
2023/12/13 01:58:43;;;;;;;4.97;1.73;;;;;;;;;;5045707;28;20037;-64
2023/12/13 02:01:09;;;;;;;3.75;1.70;;;;;;;;;;5051448;28;20028;-65
2023/12/13 02:03:38;;;;;;;4.55;1.35;;;;;;;;;;5048283;28;20399;-64
2023/12/13 02:06:04;;;;;;;6.97;1.38;;;;;;;;;;5048593;28;20052;-64
2023/12/13 02:08:30;;;;;;;2.13;1.50;;;;;;;;;;5049356;28;20455;-65
2023/12/13 02:10:56;;;;;;;7.35;1.80;;;;;;;;;;5051826;28;20039;-65
2023/12/13 02:13:22;;;;;;;5.40;1.65;;;;;;;;;;5050051;28;20115;-66
2023/12/13 02:15:48;;;;;;;7.50;1.70;;;;;;;;;;5048120;28;20052;-64
2023/12/13 02:18:17;;;;;;;5.75;1.80;;;;;;;;;;5052463;28;20468;-64
2023/12/13 02:20:43;;;;;;;5.53;1.75;;;;;;;;;;5030483;28;20044;-67
2023/12/13 02:23:08;;;;;;;3.60;1.95;;;;;;;;;;5049267;28;20446;-66
2023/12/13 02:25:38;;;;;;;3.90;1.90;;;;;;;;;;5051612;28;20033;-64
2023/12/13 02:28:05;;;;;;;4.30;1.90;;;;;;;;;;5012093;28;20373;-65
2023/12/13 02:30:31;;;;;;;5.68;1.70;;;;;;;;;;5029986;28;20104;-65
2023/12/13 02:32:56;;;;;;;4.85;1.50;;;;;;;;;;5045050;28;20112;-65
2023/12/13 02:35:22;;;;;;;4.32;1.75;;;;;;;;;;5048482;28;20053;-67
2023/12/13 02:37:49;;;;;;;5.00;2.05;;;;;;;;;;5049775;28;20033;-64
2023/12/13 02:40:18;;;;;;;4.45;1.75;;;;;;;;;;5049924;28;20039;-64
2023/12/13 02:42:44;;;;;;;6.03;1.67;;;;;;;;;;5032735;28;20033;-64
2023/12/13 02:45:12;;;;;;;8.00;2.00;;;;;;;;;;5030375;28;20044;-64
2023/12/13 02:47:41;;;;;;;4.65;1.90;;;;;;;;;;5046854;28;20064;-65
2023/12/13 02:50:11;;;;;;;5.18;1.83;;;;;;;;;;5050289;28;20565;-65
2023/12/13 02:52:36;;;;;;;10.02;2.30;;;;;;;;;;5046468;28;20387;-64
2023/12/13 02:55:02;;;;;;;6.63;2.05;;;;;;;;;;5043966;28;20030;-62
2023/12/13 02:57:27;;;;;;;4.90;1.88;;;;;;;;;;5046770;28;21610;-64
2023/12/13 02:59:53;;;;;;;7.28;2.22;;;;;;;;;;5046129;28;20080;-62
2023/12/13 03:02:18;;;;;;;7.35;2.30;;;;;;;;;;5035575;28;20051;-64
2023/12/13 03:04:43;;;;;;;8.43;2.42;;;;;;;;;;5049339;28;20062;-64
2023/12/13 03:07:09;;;;;;;10.00;2.67;;;;;;;;;;5046488;28;20032;-64
2023/12/13 03:09:34;;;;;;;7.82;2.22;;;;;;;;;;5048316;28;20390;-63
2023/12/13 03:12:00;;;;;;;9.05;2.55;;;;;;;;;;5049881;28;20092;-63
2023/12/13 03:14:25;;;;;;;6.32;2.38;;;;;;;;;;5047183;28;20033;-63
2023/12/13 03:16:51;;;;;;;6.20;2.33;;;;;;;;;;5040593;28;20033;-63
2023/12/13 03:19:16;;;;;;;7.88;2.40;;;;;;;;;;5047772;28;20359;-65
2023/12/13 03:21:42;;;;;;;8.95;2.40;;;;;;;;;;5046013;28;20032;-64
2023/12/13 03:24:07;;;;;;;7.50;2.33;;;;;;;;;;5041507;28;20113;-63
2023/12/13 03:26:32;;;;;;;6.97;2.42;;;;;;;;;;5047015;28;20032;-64
2023/12/13 03:28:58;;;;;;;8.90;2.40;;;;;;;;;;5051633;28;20112;-64
2023/12/13 03:31:23;;;;;;;6.93;2.42;;;;;;;;;;5038579;28;20045;-64
2023/12/13 03:33:48;;;;;;;8.23;2.60;;;;;;;;;;5026623;28;20033;-63
2023/12/13 03:36:15;;;;;;;10.25;2.47;;;;;;;;;;5015388;28;20038;-63
2023/12/13 03:38:41;;;;;;;7.97;2.30;;;;;;;;;;5020091;28;20116;-63
2023/12/13 03:41:06;;;;;;;6.47;2.45;;;;;;;;;;5042065;28;20044;-61
2023/12/13 03:43:31;;;;;;;10.75;3.28;;;;;;;;;;5046222;28;20546;-63
2023/12/13 03:45:57;;;;;;;8.45;2.40;;;;;;;;;;5049419;28;20083;-64
2023/12/13 03:48:22;;;;;;;9.90;2.35;;;;;;;;;;5049619;28;20032;-64
2023/12/13 03:50:48;;;;;;;5.65;2.13;;;;;;;;;;5049400;28;20058;-65
2023/12/13 03:53:13;;;;;;;6.80;2.30;;;;;;;;;;5028374;28;20530;-64
2023/12/13 03:55:38;;;;;;;9.00;2.40;;;;;;;;;;5039332;28;20033;-64
2023/12/13 03:58:04;;;;;;;8.07;2.78;;;;;;;;;;5045000;28;20368;-63
2023/12/13 04:00:29;;;;;;;12.07;2.42;;;;;;;;;;5042011;28;20044;-65
2023/12/13 04:02:54;;;;;;;8.18;2.33;;;;;;;;;;5035401;28;20061;-63
2023/12/13 04:05:20;;;;;;;6.85;2.40;;;;;;;;;;5037348;28;20043;-63
2023/12/13 04:07:45;;;;;;;8.02;2.65;;;;;;;;;;5050970;28;20117;-64
2023/12/13 04:10:10;;;;;;;14.65;2.90;;;;;;;;;;5048128;28;20048;-63
2023/12/13 04:12:36;;;;;;;8.40;2.50;;;;;;;;;;5048082;28;20094;-64
2023/12/13 04:15:01;;;;;;;13.73;2.60;;;;;;;;;;5038811;28;20061;-64
2023/12/13 04:17:27;;;;;;;8.00;2.38;;;;;;;;;;5021165;28;20045;-64
2023/12/13 04:19:54;;;;;;;8.68;2.40;;;;;;;;;;5011304;28;20567;-64
2023/12/13 04:22:19;;;;;;;11.07;2.75;;;;;;;;;;5010860;28;20457;-64
2023/12/13 04:24:45;;;;;;;12.23;2.70;;;;;;;;;;5029644;28;20040;-63
2023/12/13 04:27:10;;;;;;;9.70;3.13;;;;;;;;;;5047760;28;21271;-64
2023/12/13 04:29:36;;;;;;;10.15;3.08;;;;;;;;;;5055116;28;20036;-64
2023/12/13 04:32:01;;;;;;;13.43;4.57;;;;;;;;;;5044500;28;20464;-64
2023/12/13 04:34:26;;;;;;;10.20;3.00;;;;;;;;;;5041108;28;20060;-64
2023/12/13 04:36:52;;;;;;;16.90;4.70;;;;;;;;;;5033511;28;20384;-66
2023/12/13 04:39:17;;;;;;;19.00;5.15;;;;;;;;;;5045782;28;20029;-65
2023/12/13 04:41:42;;;;;;;10.32;2.95;;;;;;;;;;5051454;28;20037;-64
2023/12/13 04:44:09;;;;;;;6.47;2.55;;;;;;;;;;5046752;28;20476;-62
2023/12/13 04:46:34;;;;;;;10.65;2.83;;;;;;;;;;5052193;28;20108;-64
2023/12/13 04:49:00;;;;;;;13.23;2.80;;;;;;;;;;5053060;28;20472;-64
2023/12/13 04:51:26;;;;;;;10.18;2.63;;;;;;;;;;5053864;28;20021;-64
2023/12/13 04:53:52;;;;;;;12.82;2.80;;;;;;;;;;5049270;28;20399;-62
2023/12/13 04:56:17;;;;;;;10.18;2.78;;;;;;;;;;5053049;28;20033;-64
2023/12/13 04:58:42;;;;;;;16.85;2.90;;;;;;;;;;5049379;28;20387;-64
2023/12/13 05:01:08;;;;;;;12.63;3.17;;;;;;;;;;5030891;28;20037;-62
2023/12/13 05:03:33;;;;;;;9.38;2.58;;;;;;;;;;5051725;28;20464;-64
2023/12/13 05:05:59;;;;;;;12.73;3.03;;;;;;;;;;5049819;28;20040;-64
2023/12/13 05:08:24;;;;;;;15.57;2.70;;;;;;;;;;5052167;28;20455;-63
2023/12/13 05:10:49;;;;;;;9.55;2.90;;;;;;;;;;5051206;28;20029;-63
2023/12/13 05:13:15;;;;;;;11.13;2.92;;;;;;;;;;5051021;28;20535;-63
2023/12/13 05:15:40;;;;;;;10.18;2.70;;;;;;;;;;5029778;28;20021;-64
2023/12/13 05:18:05;;;;;;;12.02;2.70;;;;;;;;;;5051386;28;20021;-63
2023/12/13 05:20:31;;;;;;;9.32;2.50;;;;;;;;;;5039193;28;20072;-63
2023/12/13 05:22:56;;;;;;;9.20;2.80;;;;;;;;;;5054352;28;20112;-63
2023/12/13 05:25:22;;;;;;;9.77;2.92;;;;;;;;;;5048659;28;20075;-63
2023/12/13 05:27:47;;;;;;;11.65;3.08;;;;;;;;;;5050810;28;20059;-63
2023/12/13 05:30:13;;;;;;;9.82;2.50;;;;;;;;;;5053321;28;20459;-61
2023/12/13 05:32:38;;;;;;;13.75;2.90;;;;;;;;;;5025252;28;20033;-63
2023/12/13 05:35:04;;;;;;;8.73;3.17;;;;;;;;;;5024975;28;20087;-64
2023/12/13 05:37:29;;;;;;;14.80;3.28;;;;;;;;;;5051001;28;20687;-62
2023/12/13 05:39:54;;;;;;;11.95;2.65;;;;;;;;;;5044105;28;20041;-63
2023/12/13 05:42:20;;;;;;;13.52;2.80;;;;;;;;;;5051728;28;20121;-63
2023/12/13 05:44:46;;;;;;;12.55;2.83;;;;;;;;;;5045370;28;20457;-62
2023/12/13 05:47:12;;;;;;;14.73;3.78;;;;;;;;;;5047185;28;20033;-60
2023/12/13 05:49:37;;;;;;;10.25;3.30;;;;;;;;;;5049359;28;20056;-65
2023/12/13 05:52:03;;;;;;;13.05;3.35;;;;;;;;;;5042761;28;20460;-63
2023/12/13 05:54:28;;;;;;;12.70;3.65;;;;;;;;;;5017919;28;20033;-63
2023/12/13 05:56:54;;;;;;;11.73;5.18;;;;;;;;;;5013492;28;20515;-64
2023/12/13 05:59:19;;;;;;;12.77;4.50;;;;;;;;;;5013003;28;20025;-63
2023/12/13 06:01:44;;;;;;;14.00;4.60;;;;;;;;;;5013571;28;20491;-63
2023/12/13 06:04:10;;;;;;;15.50;6.38;;;;;;;;;;5013488;28;20030;-65
2023/12/13 06:06:35;;;;;;;16.65;4.70;;;;;;;;;;5012598;28;20109;-63
2023/12/13 06:09:02;;;;;;;11.88;3.88;;;;;;;;;;5013878;28;20172;-64
2023/12/13 06:11:28;;;;;;;13.30;3.35;;;;;;;;;;5017581;28;20025;-64
2023/12/13 06:13:54;;;;;;;16.42;3.80;;;;;;;;;;5033227;28;20033;-63
2023/12/13 06:16:19;;;;;;;13.38;3.80;;;;;;;;;;5031715;28;20037;-63
2023/12/13 06:18:45;;;;;;;16.05;3.75;;;;;;;;;;5033004;28;20084;-65
2023/12/13 06:21:10;;;;;;;10.50;3.05;;;;;;;;;;5032965;28;20499;-64
2023/12/13 06:23:35;;;;;;;9.55;3.80;;;;;;;;;;5032294;28;20080;-63
2023/12/13 06:26:01;;;;;;;14.23;3.47;;;;;;;;;;5013391;28;20484;-63
2023/12/13 06:28:26;;;;;;;9.00;3.45;;;;;;;;;;5017071;28;20038;-63
2023/12/13 06:30:52;;;;;;;12.98;3.60;;;;;;;;;;5032340;28;20380;-63
2023/12/13 06:33:18;;;;;;;12.73;3.60;;;;;;;;;;5026023;28;20033;-62
2023/12/13 06:35:44;;;;;;;13.57;3.88;;;;;;;;;;5012948;28;20041;-65
2023/12/13 06:38:09;;;;;;;13.20;3.65;;;;;;;;;;5015385;28;20036;-65
2023/12/13 06:40:35;;;;;;;16.75;4.30;;;;;;;;;;5027683;28;20064;-63
2023/12/13 06:43:00;;;;;;;14.27;3.85;;;;;;;;;;5012402;28;20033;-69
2023/12/13 06:45:25;;;;;;;14.13;3.67;;;;;;;;;;5030412;28;20365;-63
2023/12/13 06:47:51;;;;;;;13.55;4.18;;;;;;;;;;5029064;28;20053;-63
2023/12/13 06:50:17;;;;;;;15.82;3.80;;;;;;;;;;5011600;28;20049;-63
2023/12/13 06:52:43;;;;;;;13.35;4.28;;;;;;;;;;5023255;28;20033;-64
2023/12/13 06:55:09;;;;;;;14.32;4.13;;;;;;;;;;5032108;28;20518;-64
2023/12/13 06:57:35;;;;;;;16.17;4.00;;;;;;;;;;5028097;28;20112;-65
2023/12/13 07:00:00;;;;;;;16.83;4.25;;;;;;;;;;5014406;28;20115;-66
2023/12/13 07:02:26;;;;;;;13.45;4.32;;;;;;;;;;5011495;28;20058;-64
2023/12/13 07:04:51;;;;;;;11.50;3.80;;;;;;;;;;5032057;28;20041;-63
2023/12/13 07:07:16;;;;;;;13.02;4.47;;;;;;;;;;5031111;28;20037;-61
2023/12/13 07:09:45;;;;;;;16.65;4.78;;;;;;;;;;5031643;28;20361;-65
2023/12/13 07:12:11;;;;;;;12.48;4.20;;;;;;;;;;5032286;28;20361;-65
2023/12/13 07:14:36;;;;;;;15.43;5.63;;;;;;;;;;5030389;28;20093;-64
2023/12/13 07:17:03;;;;;;;14.90;4.15;;;;;;;;;;5031781;28;20026;-64
2023/12/13 07:19:29;;;;;;;16.17;5.00;;;;;;;;;;5030572;28;20037;-64
2023/12/13 07:21:54;;;;;;;10.60;4.32;;;;;;;;;;5030236;28;20116;-63
2023/12/13 07:24:20;;;;;;;15.93;4.70;;;;;;;;;;5029350;28;20045;-63
2023/12/13 07:26:46;;;;;;;18.88;5.20;;;;;;;;;;5025870;28;20109;-63
2023/12/13 07:29:12;;;;;;;12.27;4.63;;;;;;;;;;5022714;28;20060;-63
2023/12/13 07:31:39;;;;;;;19.20;5.13;;;;;;;;;;5030014;28;20022;-65
2023/12/13 07:34:05;;;;;;;18.67;5.70;;;;;;;;;;5030934;28;20037;-64
2023/12/13 07:36:31;;;;;;;11.73;5.18;;;;;;;;;;5028509;28;20030;-64
2023/12/13 07:38:56;;;;;;;18.80;5.30;;;;;;;;;;5023974;28;20025;-64
2023/12/13 07:41:21;;;;;;;18.25;5.40;;;;;;;;;;5029613;28;20033;-64
2023/12/13 07:43:47;;;;;;;17.33;5.35;;;;;;;;;;5029479;28;20041;-63
2023/12/13 07:46:13;;;;;;;18.20;5.07;;;;;;;;;;5009839;28;20396;-69
2023/12/13 07:48:41;;;;;;;14.13;5.20;;;;;;;;;;5014975;28;20652;-65
2023/12/13 07:51:06;;;;;;;18.77;5.50;;;;;;;;;;5010926;28;20030;-63
2023/12/13 07:53:32;;;;;;;15.57;5.15;;;;;;;;;;5028039;28;20128;-62
2023/12/13 07:55:57;;;;;;;17.67;5.30;;;;;;;;;;5016721;28;20076;-64
2023/12/13 07:58:23;;;;;;;15.63;5.80;;;;;;;;;;5044676;28;20034;-64
2023/12/13 08:00:48;;;;;;;14.95;5.18;;;;;;;;;;5030674;28;20033;-74
2023/12/13 08:03:13;;;;;;;16.25;4.88;;;;;;;;;;5030890;28;20068;-63
2023/12/13 08:05:39;;;;;;;15.45;5.45;;;;;;;;;;5029773;28;20284;-63
2023/12/13 08:08:04;;;;;;;14.15;5.65;;;;;;;;;;5030053;28;20022;-62
2023/12/13 08:10:29;;;;;;;13.65;5.80;;;;;;;;;;5021755;28;20129;-62
2023/12/13 08:12:55;;;;;;;17.30;6.07;;;;;;;;;;5010754;28;20523;-62
2023/12/13 08:15:20;;;;;;;19.17;6.65;;;;;;;;;;5029347;28;20026;-62
2023/12/13 08:17:46;;;;;;;23.83;7.40;;;;;;;;;;5029418;28;20069;-64
2023/12/13 08:20:11;;;;;;;27.27;9.50;;;;;;;;;;4991813;28;1098222;-65
2023/12/13 08:22:37;;;;;;;22.30;10.07;;;;;;;;;;5027359;28;20511;-64
2023/12/13 08:25:03;;;;;;;22.45;8.85;;;;;;;;;;5027552;28;20090;-64
2023/12/13 08:27:29;;;;;;;20.55;6.85;;;;;;;;;;5010666;28;20084;-63
2023/12/13 08:29:54;;;;;;;19.20;6.47;;;;;;;;;;5026765;28;20565;-66
2023/12/13 08:32:19;;;;;;;15.98;6.20;;;;;;;;;;5029732;28;20124;-62
2023/12/13 08:34:45;;;;;;;17.55;5.00;;;;;;;;;;5030325;28;20030;-65
2023/12/13 08:37:11;;;;;;;13.82;4.75;;;;;;;;;;5025766;28;20057;-66
2023/12/13 08:39:37;;;;;;;13.27;4.97;;;;;;;;;;5029024;28;20041;-67
2023/12/13 08:42:03;;;;;;;16.52;5.03;;;;;;;;;;5015963;28;20042;-64
2023/12/13 08:44:29;;;;;;;13.30;4.53;;;;;;;;;;5021202;28;20087;-66
2023/12/13 08:46:55;;;;;;;20.42;5.10;;;;;;;;;;5030739;28;20431;-65
2023/12/13 08:49:20;;;;;;;19.58;6.15;;;;;;;;;;5030079;28;20049;-61
2023/12/13 08:51:46;;;;;;;17.42;5.75;;;;;;;;;;5023578;28;20025;-64
2023/12/13 08:54:12;;;;;;;19.42;5.20;;;;;;;;;;5019299;28;20029;-65
2023/12/13 08:56:37;;;;;;;14.63;5.25;;;;;;;;;;5030114;28;20087;-64
2023/12/13 08:59:03;;;;;;;13.68;5.10;;;;;;;;;;5030468;28;20087;-64
2023/12/13 09:01:28;;;;;;;13.73;4.93;;;;;;;;;;5030013;28;20029;-64
2023/12/13 09:03:54;;;;;;;13.93;4.28;;;;;;;;;;5023613;28;20376;-63
2023/12/13 09:06:19;;;;;;;19.15;4.45;;;;;;;;;;5030463;28;20053;-63
2023/12/13 09:08:44;;;;;;;16.35;5.95;;;;;;;;;;5017164;28;20048;-64
2023/12/13 09:11:11;;;;;;;12.65;4.13;;;;;;;;;;5033436;28;20033;-62
2023/12/13 09:13:36;;;;;;;17.00;4.18;;;;;;;;;;5020177;28;20037;-64
2023/12/13 09:16:02;;;;;;;13.65;4.10;;;;;;;;;;5034238;28;20371;-66
2023/12/13 09:18:27;;;;;;;13.88;4.30;;;;;;;;;;5023097;28;20041;-63
2023/12/13 09:20:53;;;;;;;10.55;3.50;;;;;;;;;;5033691;28;20128;-64
2023/12/13 09:23:25;;;;;;;11.95;4.28;;;;;;;;;;5031486;28;20072;-64
2023/12/13 09:25:52;;;;;;;13.45;3.78;;;;;;;;;;5034027;28;20034;-62
2023/12/13 09:28:18;;;;;;;14.82;4.38;;;;;;;;;;5033708;28;20392;-64
2023/12/13 09:30:44;;;;;;;16.63;4.60;;;;;;;;;;5030507;28;20029;-66
2023/12/13 09:33:11;;;;;;;16.55;4.15;;;;;;;;;;5031627;28;20088;-64
2023/12/13 09:35:37;;;;;;;15.07;4.40;;;;;;;;;;5026248;28;20030;-65
2023/12/13 09:38:04;;;;;;;11.90;4.30;;;;;;;;;;5013979;28;20026;-65
2023/12/13 09:40:30;;;;;;;13.57;4.68;;;;;;;;;;5028860;28;20110;-65
2023/12/13 09:42:56;;;;;;;20.42;5.10;;;;;;;;;;5031334;28;20475;-66
2023/12/13 09:45:22;;;;;;;14.77;4.63;;;;;;;;;;5023762;28;20397;-64
2023/12/13 09:47:51;;;;;;;12.25;4.05;;;;;;;;;;5032786;28;20108;-66
2023/12/13 09:50:18;;;;;;;13.88;3.90;;;;;;;;;;5033162;28;20060;-63
2023/12/13 09:52:44;;;;;;;20.83;4.80;;;;;;;;;;5029157;28;20057;-64
2023/12/13 09:55:11;;;;;;;12.25;4.18;;;;;;;;;;5031873;28;20066;-65
2023/12/13 09:57:37;;;;;;;11.30;3.83;;;;;;;;;;5016142;28;20076;-65
2023/12/13 10:00:04;;;;;;;14.90;3.58;;;;;;;;;;5024833;28;20030;-66
2023/12/13 10:02:30;;;;;;;11.27;4.32;;;;;;;;;;5032416;28;20030;-65
2023/12/13 10:04:59;;;;;;;15.90;4.20;;;;;;;;;;5033335;28;20071;-63
2023/12/13 10:07:27;;;;;;;10.20;4.47;;;;;;;;;;5021300;28;20038;-61
2023/12/13 10:09:55;;;;;;;17.23;5.43;;;;;;;;;;5021591;28;20499;-65
2023/12/13 10:12:21;;;;;;;15.63;5.78;;;;;;;;;;5017199;28;20065;-63
2023/12/13 10:14:46;;;;;;;15.85;5.70;;;;;;;;;;5027864;28;20053;-64
2023/12/13 10:17:11;;;;;;;13.00;5.47;;;;;;;;;;5033014;28;20029;-65
2023/12/13 10:19:37;;;;;;;14.07;4.90;;;;;;;;;;5031824;28;20540;-63
2023/12/13 10:22:05;;;;;;;18.15;5.80;;;;;;;;;;5032266;28;20033;-63
2023/12/13 10:24:31;;;;;;;12.00;5.28;;;;;;;;;;5030394;28;20487;-64
2023/12/13 10:26:57;;;;;;;21.55;5.75;;;;;;;;;;5031546;28;20171;-63
2023/12/13 10:29:23;;;;;;;15.52;5.45;;;;;;;;;;5032342;28;20053;-61
2023/12/13 10:31:48;;;;;;;17.75;5.45;;;;;;;;;;5013454;28;20041;-66
2023/12/13 10:34:15;;;;;;;17.73;5.50;;;;;;;;;;5015809;28;20389;-64
2023/12/13 10:36:40;;;;;;;16.50;5.03;;;;;;;;;;5030007;28;20116;-64
2023/12/13 10:39:07;;;;;;;19.80;6.63;;;;;;;;;;5017248;28;20437;-66
2023/12/13 10:41:33;;;;;;;14.65;5.65;;;;;;;;;;5022479;28;20040;-63
2023/12/13 10:44:02;;;;;;;19.83;5.60;;;;;;;;;;5013047;28;20065;-61
2023/12/13 10:46:33;;;;;;;16.88;6.80;;;;;;;;;;5016678;28;20116;-63
2023/12/13 10:49:00;;;;;;;15.13;5.57;;;;;;;;;;5012472;28;20030;-64
2023/12/13 10:51:26;;;;;;;14.82;5.57;;;;;;;;;;5011837;28;20087;-62
2023/12/13 10:53:52;;;;;;;18.40;6.57;;;;;;;;;;5012922;28;20034;-65
2023/12/13 10:56:18;;;;;;;17.73;6.35;;;;;;;;;;5028759;28;20045;-64
2023/12/13 10:58:44;;;;;;;18.20;5.68;;;;;;;;;;5029839;28;20037;-63
2023/12/13 11:01:11;;;;;;;15.30;5.65;;;;;;;;;;5029530;28;20112;-64
2023/12/13 11:03:47;;;;;;;16.80;5.43;;;;;;;;;;5030012;28;20039;-63
2023/12/13 11:06:14;;;;;;;18.13;5.40;;;;;;;;;;5021060;28;20032;-63
2023/12/13 11:08:43;;;;;;;19.23;6.80;;;;;;;;;;5011584;28;20411;-62
2023/12/13 11:11:11;;;;;;;15.35;4.75;;;;;;;;;;5028657;28;20041;-63
2023/12/13 11:13:50;;;;;;;23.42;5.60;;;;;;;;;;5023838;28;20030;-63
2023/12/13 11:16:20;;;;;;;14.77;5.55;;;;;;;;;;5016048;28;20041;-62
2023/12/13 11:18:47;;;;;;;17.75;6.78;;;;;;;;;;5012043;28;20128;-61
2023/12/13 11:21:29;;;;;;;14.43;4.80;;;;;;;;;;5027505;28;20534;-62
2023/12/13 11:23:58;;;;;;;22.15;7.15;;;;;;;;;;5030669;28;20053;-62
2023/12/13 11:26:26;;;;;;;15.50;4.88;;;;;;;;;;5031216;28;20373;-61
2023/12/13 11:28:54;;;;;;;18.00;5.97;;;;;;;;;;5024300;28;20057;-65
2023/12/13 11:31:26;;;;;;;19.60;5.82;;;;;;;;;;5028518;28;20072;-65
2023/12/13 11:33:56;;;;;;;15.30;4.43;;;;;;;;;;5031443;28;20112;-64
2023/12/13 11:36:22;;;;;;;32.22;5.07;;;;;;;;;;5031336;28;20044;-62
2023/12/13 11:38:50;;;;;;;22.58;7.95;;;;;;;;;;5029265;28;20075;-66
2023/12/13 11:41:16;;;;;;;12.20;5.38;;;;;;;;;;5031315;28;20056;-66
2023/12/13 11:43:42;;;;;;;13.15;4.43;;;;;;;;;;5030813;28;20483;-65
2023/12/13 11:46:08;;;;;;;13.95;4.85;;;;;;;;;;5031550;28;20041;-65
2023/12/13 11:48:33;;;;;;;15.35;5.30;;;;;;;;;;5025182;28;20087;-65
2023/12/13 11:50:59;;;;;;;17.42;5.13;;;;;;;;;;5014073;28;20041;-66
2023/12/13 11:53:25;;;;;;;15.63;5.13;;;;;;;;;;5026856;28;20045;-62
2023/12/13 11:55:50;;;;;;;9.35;4.55;;;;;;;;;;5028897;28;20041;-64
2023/12/13 11:58:16;;;;;;;10.90;5.18;;;;;;;;;;5027743;28;20033;-63
2023/12/13 12:00:43;;;;;;;16.83;5.20;;;;;;;;;;5027673;28;20042;-65
2023/12/13 12:03:08;;;;;;;10.73;4.47;;;;;;;;;;5016153;28;20413;-66
2023/12/13 12:05:34;;;;;;;11.73;4.03;;;;;;;;;;5013132;28;20073;-64
2023/12/13 12:08:01;;;;;;;15.57;4.00;;;;;;;;;;5031184;28;20465;-66
2023/12/13 12:10:29;;;;;;;9.38;3.30;;;;;;;;;;5019237;28;20065;-65
2023/12/13 12:12:54;;;;;;;8.95;3.03;;;;;;;;;;5031104;28;20072;-69
2023/12/13 12:15:20;;;;;;;6.82;3.28;;;;;;;;;;5030944;28;20075;-68
2023/12/13 12:17:46;;;;;;;5.22;2.58;;;;;;;;;;5030403;28;20434;-66
2023/12/13 12:20:13;;;;;;;9.35;3.30;;;;;;;;;;5026931;28;20111;-68
2023/12/13 12:22:38;;;;;;;8.50;2.92;;;;;;;;;;5028715;28;20029;-67
2023/12/13 12:25:05;;;;;;;7.38;3.03;;;;;;;;;;5030966;28;20491;-68
2023/12/13 12:27:31;;;;;;;6.90;3.03;;;;;;;;;;5029206;28;20032;-66
2023/12/13 12:29:56;;;;;;;7.97;3.47;;;;;;;;;;5013081;28;20030;-67
2023/12/13 12:32:22;;;;;;;6.57;3.03;;;;;;;;;;5030698;28;20032;-63
2023/12/13 12:34:48;;;;;;;9.05;3.90;;;;;;;;;;5027666;28;20030;-66
2023/12/13 12:37:16;;;;;;;12.05;3.90;;;;;;;;;;5029107;28;20436;-66
2023/12/13 12:39:42;;;;;;;11.13;4.22;;;;;;;;;;5028073;28;20063;-67
2023/12/13 12:42:08;;;;;;;10.73;4.68;;;;;;;;;;5030373;28;20095;-67
2023/12/13 12:44:33;;;;;;;10.27;4.60;;;;;;;;;;5031065;28;20040;-68
2023/12/13 12:46:58;;;;;;;8.05;4.68;;;;;;;;;;5034741;28;20042;-68
2023/12/13 12:49:24;;;;;;;14.18;6.00;;;;;;;;;;5018217;28;20048;-64
2023/12/13 12:51:50;;;;;;;10.98;5.50;;;;;;;;;;5030497;28;20456;-68
2023/12/13 12:54:16;;;;;;;6.55;4.10;;;;;;;;;;5024769;28;20065;-69
2023/12/13 12:56:41;;;;;;;9.05;4.13;;;;;;;;;;5028412;28;20037;-66
2023/12/13 12:59:12;;;;;;;6.78;3.90;;;;;;;;;;5022941;28;20033;-65
2023/12/13 13:01:37;;;;;;;6.55;3.83;;;;;;;;;;5016678;28;20068;-65
2023/12/13 13:04:02;;;;;;;9.18;4.03;;;;;;;;;;5014557;28;20034;-65
2023/12/13 13:06:28;;;;;;;8.00;3.83;;;;;;;;;;5023953;28;20036;-64
2023/12/13 13:08:53;;;;;;;8.73;3.88;;;;;;;;;;5014188;28;20055;-64
2023/12/13 13:11:19;;;;;;;8.35;3.60;;;;;;;;;;5025802;28;20048;-65
2023/12/13 13:13:44;;;;;;;8.95;3.72;;;;;;;;;;5033448;28;20025;-65
2023/12/13 13:16:12;;;;;;;8.00;3.75;;;;;;;;;;5034086;28;20336;-64
2023/12/13 13:18:37;;;;;;;7.82;3.72;;;;;;;;;;5026193;28;20034;-66
2023/12/13 13:21:03;;;;;;;6.32;3.75;;;;;;;;;;5022578;28;20069;-64
2023/12/13 13:23:29;;;;;;;7.47;4.15;;;;;;;;;;5015262;28;20455;-66
2023/12/13 13:25:54;;;;;;;6.97;4.10;;;;;;;;;;5019015;28;20473;-66
2023/12/13 13:28:20;;;;;;;7.32;4.03;;;;;;;;;;5033999;28;20116;-68
2023/12/13 13:30:46;;;;;;;7.97;3.83;;;;;;;;;;5031082;28;20452;-66
2023/12/13 13:33:11;;;;;;;9.88;4.30;;;;;;;;;;5033909;28;20057;-66
2023/12/13 13:35:37;;;;;;;10.65;4.38;;;;;;;;;;5033123;28;20029;-64
2023/12/13 13:38:02;;;;;;;8.80;3.60;;;;;;;;;;5030660;28;20140;-64
2023/12/13 13:40:28;;;;;;;8.60;4.00;;;;;;;;;;5032582;28;20042;-65
2023/12/13 13:42:54;;;;;;;8.68;4.22;;;;;;;;;;5033758;28;20079;-65
2023/12/13 13:45:19;;;;;;;8.38;4.40;;;;;;;;;;5033340;28;20061;-64
2023/12/13 13:47:45;;;;;;;9.52;4.72;;;;;;;;;;5032989;28;20037;-65
2023/12/13 13:50:11;;;;;;;8.88;5.32;;;;;;;;;;5033051;28;20037;-64
2023/12/13 13:52:37;;;;;;;8.50;4.88;;;;;;;;;;5028893;28;20041;-65
2023/12/13 13:55:09;;;;;;;10.43;4.45;;;;;;;;;;5033151;28;20368;-63
2023/12/13 13:57:35;;;;;;;12.00;4.72;;;;;;;;;;5032504;28;20387;-64
2023/12/13 14:00:01;;;;;;;12.73;4.80;;;;;;;;;;5024041;28;20044;-64
2023/12/13 14:02:31;;;;;;;10.95;4.80;;;;;;;;;;5020149;28;20040;-63
2023/12/13 14:04:57;;;;;;;9.48;4.40;;;;;;;;;;5016407;28;20080;-64
2023/12/13 14:07:22;;;;;;;11.35;4.82;;;;;;;;;;5026818;28;20068;-62
2023/12/13 14:09:48;;;;;;;12.38;5.50;;;;;;;;;;5027093;28;20037;-65
2023/12/13 14:12:13;;;;;;;10.65;5.22;;;;;;;;;;5028521;28;20087;-65
2023/12/13 14:14:38;;;;;;;12.63;5.90;;;;;;;;;;5032079;28;20101;-63
2023/12/13 14:17:04;;;;;;;11.30;5.45;;;;;;;;;;5026296;28;20042;-64
2023/12/13 14:19:29;;;;;;;12.68;5.75;;;;;;;;;;5011924;28;20025;-62
2023/12/13 14:21:55;;;;;;;12.57;6.00;;;;;;;;;;5025418;28;20029;-63
2023/12/13 14:24:20;;;;;;;12.00;5.95;;;;;;;;;;5032792;28;20018;-63
2023/12/13 14:26:45;;;;;;;14.27;6.20;;;;;;;;;;5031869;28;20442;-66
2023/12/13 14:29:12;;;;;;;14.70;7.00;;;;;;;;;;5032795;28;20040;-66